createdAt,value
2018-09-03T00:00:55.336Z,11.38
2018-09-03T00:02:00.738Z,11.53
2018-09-03T00:03:03.821Z,11.48
2018-09-03T00:04:06.891Z,11.85
2018-09-03T00:05:09.920Z,12.28
2018-09-03T00:06:12.966Z,10.95
2018-09-03T00:07:16.903Z,11.25
2018-09-03T00:08:20.444Z,11.88
2018-09-03T00:09:23.607Z,11.68
2018-09-03T00:10:26.672Z,12.03
2018-09-03T00:11:30.068Z,12.55
2018-09-03T00:12:33.133Z,11.73
2018-09-03T00:13:37.204Z,11.10
2018-09-03T00:14:41.171Z,11.85
2018-09-03T00:15:45.653Z,11.28
2018-09-03T00:16:49.196Z,11.80
2018-09-03T00:17:53.504Z,11.78
2018-09-03T00:18:56.589Z,11.63
2018-09-03T00:20:00.450Z,10.95
2018-09-03T00:21:03.854Z,10.93
2018-09-03T00:22:08.206Z,11.88
2018-09-03T00:23:11.933Z,11.48
2018-09-03T00:24:15.669Z,12.18
2018-09-03T00:25:19.328Z,12.30
2018-09-03T00:26:23.440Z,11.85
2018-09-03T00:27:26.513Z,11.78
2018-09-03T00:28:30.767Z,12.10
2018-09-03T00:29:34.891Z,11.35
2018-09-03T00:30:39.076Z,10.68
2018-09-03T00:31:47.463Z,11.35
2018-09-03T00:32:56.017Z,11.73
2018-09-03T00:34:04.457Z,11.55
2018-09-03T00:35:13.140Z,11.45
2018-09-03T00:36:21.505Z,11.88
2018-09-03T00:37:30.487Z,11.73
2018-09-03T00:38:39.600Z,11.65
2018-09-03T00:39:48.117Z,11.55
2018-09-03T00:40:57.264Z,12.53
2018-09-03T00:42:05.664Z,11.80
2018-09-03T00:43:14.108Z,11.88
2018-09-03T00:46:27.617Z,11.35
2018-09-03T00:47:30.704Z,11.10
2018-09-03T00:48:33.693Z,12.47
2018-09-03T00:49:36.738Z,11.50
2018-09-03T00:50:39.757Z,12.07
2018-09-03T00:51:42.800Z,12.07
2018-09-03T00:52:45.860Z,11.65
2018-09-03T00:53:49.596Z,11.85
2018-09-03T00:54:53.378Z,11.90
2018-09-03T00:55:57.988Z,11.45
2018-09-03T00:57:03.011Z,12.53
2018-09-03T00:58:07.088Z,12.37
2018-09-03T00:59:10.159Z,11.43
2018-09-03T01:00:14.436Z,11.60
2018-09-03T01:01:17.801Z,11.70
2018-09-03T01:02:21.587Z,11.28
2018-09-03T01:03:26.223Z,12.25
2018-09-03T01:04:30.052Z,11.60
2018-09-03T01:05:33.248Z,12.43
2018-09-03T01:06:38.904Z,10.90
2018-09-03T01:07:42.149Z,11.88
2018-09-03T01:08:46.712Z,11.35
2018-09-03T01:09:53.393Z,12.47
2018-09-03T01:10:58.212Z,12.23
2018-09-03T01:12:02.330Z,12.63
2018-09-03T01:13:08.504Z,11.63
2018-09-03T01:14:14.541Z,11.15
2018-09-03T01:15:17.709Z,11.63
2018-09-03T01:16:23.672Z,11.12
2018-09-03T01:17:28.113Z,12.58
2018-09-03T01:18:37.625Z,11.85
2018-09-03T01:19:40.788Z,12.60
2018-09-03T01:20:45.382Z,11.38
2018-09-03T01:21:49.205Z,11.08
2018-09-03T01:22:55.640Z,11.70
2018-09-03T01:24:00.445Z,13.18
2018-09-03T01:25:07.944Z,12.82
2018-09-03T01:26:12.967Z,11.10
2018-09-03T01:27:17.697Z,11.65
2018-09-03T01:28:21.925Z,11.93
2018-09-03T01:29:26.116Z,12.35
2018-09-03T01:30:30.626Z,11.95
2018-09-03T01:31:35.548Z,11.83
2018-09-03T01:32:40.144Z,11.53
2018-09-03T01:33:44.843Z,11.78
2018-09-03T01:34:49.727Z,11.90
2018-09-03T01:35:53.860Z,11.65
2018-09-03T01:37:00.353Z,12.45
2018-09-03T01:38:07.189Z,11.45
2018-09-03T01:39:11.156Z,11.90
2018-09-03T01:40:14.869Z,11.68
2018-09-03T01:41:18.700Z,11.88
2018-09-03T01:42:22.095Z,12.18
2018-09-03T01:43:25.118Z,11.83
2018-09-03T01:44:28.311Z,11.48
2018-09-03T01:45:31.316Z,11.83
2018-09-03T01:46:34.361Z,11.00
2018-09-03T01:47:37.595Z,11.18
2018-09-03T01:48:41.772Z,12.13
2018-09-03T01:49:46.020Z,11.88
2018-09-03T01:50:49.649Z,11.35
2018-09-03T01:51:52.724Z,11.57
2018-09-03T01:52:57.365Z,12.20
2018-09-03T01:54:01.362Z,11.60
2018-09-03T01:55:04.703Z,12.20
2018-09-03T01:56:08.690Z,11.48
2018-09-03T01:57:12.132Z,12.65
2018-09-03T01:58:15.287Z,11.90
2018-09-03T01:59:18.290Z,12.33
2018-09-03T02:00:22.452Z,11.85
2018-09-03T02:01:25.659Z,12.07
2018-09-03T02:02:28.680Z,12.47
2018-09-03T02:03:33.080Z,12.63
2018-09-03T02:04:36.136Z,11.88
2018-09-03T02:05:39.670Z,11.18
2018-09-03T02:06:42.971Z,11.63
2018-09-03T02:07:46.683Z,11.48
2018-09-03T02:08:49.765Z,11.83
2018-09-03T02:09:54.336Z,12.78
2018-09-03T02:10:57.420Z,11.88
2018-09-03T02:12:01.039Z,11.85
2018-09-03T02:13:04.076Z,11.83
2018-09-03T02:14:07.335Z,12.18
2018-09-03T02:15:10.368Z,11.45
2018-09-03T02:16:15.153Z,11.38
2018-09-03T02:17:18.512Z,11.68
2018-09-03T02:18:21.671Z,12.35
2018-09-03T02:19:24.711Z,12.95
2018-09-03T02:20:27.869Z,10.80
2018-09-03T02:21:31.727Z,11.28
2018-09-03T02:22:34.802Z,12.45
2018-09-03T02:23:38.315Z,11.55
2018-09-03T02:24:41.984Z,11.68
2018-09-03T02:25:45.168Z,12.47
2018-09-03T02:26:48.297Z,11.85
2018-09-03T02:27:51.374Z,12.15
2018-09-03T02:28:55.036Z,12.43
2018-09-03T02:29:58.093Z,11.63
2018-09-03T02:31:01.476Z,12.63
2018-09-03T02:32:05.344Z,12.58
2018-09-03T02:33:09.129Z,12.28
2018-09-03T02:34:12.215Z,12.13
2018-09-03T02:35:15.520Z,11.85
2018-09-03T02:36:18.846Z,11.50
2018-09-03T02:37:21.908Z,12.15
2018-09-03T02:38:25.589Z,12.25
2018-09-03T02:39:28.930Z,12.40
2018-09-03T02:40:31.946Z,11.55
2018-09-03T02:41:35.045Z,12.53
2018-09-03T02:42:38.076Z,11.65
2018-09-03T02:43:41.780Z,11.95
2018-09-03T02:44:45.494Z,12.40
2018-09-03T02:45:48.540Z,11.60
2018-09-03T02:46:51.632Z,11.97
2018-09-03T02:47:54.729Z,12.47
2018-09-03T02:48:58.746Z,11.83
2018-09-03T02:50:02.112Z,11.65
2018-09-03T02:51:05.359Z,11.90
2018-09-03T02:52:08.440Z,12.40
2018-09-03T02:53:11.460Z,11.75
2018-09-03T02:54:14.481Z,12.28
2018-09-03T02:55:17.541Z,12.13
2018-09-03T02:56:21.940Z,12.28
2018-09-03T02:57:25.781Z,12.60
2018-09-03T02:58:28.772Z,11.78
2018-09-03T02:59:31.808Z,11.88
2018-09-03T03:00:35.991Z,12.25
2018-09-03T03:01:39.197Z,11.95
2018-09-03T03:02:42.298Z,11.40
2018-09-03T03:03:45.339Z,12.25
2018-09-03T03:04:48.560Z,12.33
2018-09-03T03:05:52.206Z,12.63
2018-09-03T03:06:55.241Z,13.38
2018-09-03T03:07:58.312Z,11.63
2018-09-03T03:09:01.900Z,12.05
2018-09-03T03:10:05.343Z,12.50
2018-09-03T03:11:09.189Z,12.63
2018-09-03T03:12:14.891Z,12.30
2018-09-03T03:13:17.958Z,12.37
2018-09-03T03:14:21.613Z,13.22
2018-09-03T03:15:24.693Z,12.35
2018-09-03T03:16:27.685Z,11.15
2018-09-03T03:17:31.552Z,12.43
2018-09-03T03:18:35.196Z,11.78
2018-09-03T03:19:39.289Z,13.08
2018-09-03T03:20:42.365Z,12.00
2018-09-03T03:21:46.099Z,11.78
2018-09-03T03:22:49.233Z,12.28
2018-09-03T03:23:52.251Z,12.00
2018-09-03T03:24:55.313Z,12.43
2018-09-03T03:25:58.348Z,11.88
2018-09-03T03:27:01.360Z,11.53
2018-09-03T03:28:04.611Z,12.13
2018-09-03T03:29:07.871Z,11.35
2018-09-03T03:30:11.631Z,12.40
2018-09-03T03:31:14.807Z,12.10
2018-09-03T03:32:19.985Z,12.25
2018-09-03T03:33:23.228Z,12.10
2018-09-03T03:34:26.944Z,13.05
2018-09-03T03:35:30.718Z,12.88
2018-09-03T03:36:35.823Z,12.78
2018-09-03T03:37:40.848Z,11.93
2018-09-03T03:38:44.689Z,11.33
2018-09-03T03:39:48.594Z,12.45
2018-09-03T03:40:55.575Z,12.70
2018-09-03T03:42:01.026Z,11.03
2018-09-03T03:43:04.850Z,12.00
2018-09-03T03:44:10.158Z,11.85
2018-09-03T03:45:13.429Z,12.07
2018-09-03T03:46:17.410Z,12.18
2018-09-03T03:47:20.785Z,11.88
2018-09-03T03:48:25.226Z,11.88
2018-09-03T03:49:29.981Z,12.23
2018-09-03T03:50:33.589Z,12.30
2018-09-03T03:51:37.635Z,11.25
2018-09-03T03:52:42.464Z,11.73
2018-09-03T03:53:47.150Z,11.93
2018-09-03T03:54:50.907Z,12.23
2018-09-03T03:55:54.000Z,12.75
2018-09-03T03:56:58.019Z,12.30
2018-09-03T03:58:03.040Z,11.88
2018-09-03T03:59:06.629Z,11.70
2018-09-03T04:00:09.772Z,12.07
2018-09-03T04:01:12.845Z,12.07
2018-09-03T04:02:16.353Z,11.95
2018-09-03T04:03:19.433Z,12.10
2018-09-03T04:04:22.498Z,11.78
2018-09-03T04:05:26.063Z,11.90
2018-09-03T04:06:29.213Z,12.07
2018-09-03T04:07:32.237Z,12.28
2018-09-03T04:08:35.333Z,11.50
2018-09-03T04:09:38.337Z,11.57
2018-09-03T04:10:41.400Z,12.07
2018-09-03T04:11:44.477Z,11.57
2018-09-03T04:12:53.540Z,11.83
2018-09-03T04:13:57.700Z,13.13
2018-09-03T04:15:00.707Z,12.25
2018-09-03T04:16:03.927Z,12.13
2018-09-03T04:17:07.235Z,12.40
2018-09-03T04:18:10.239Z,12.70
2018-09-03T04:19:14.493Z,13.55
2018-09-03T04:20:17.983Z,12.43
2018-09-03T04:21:21.362Z,12.68
2018-09-03T04:22:26.207Z,12.33
2018-09-03T04:23:30.173Z,12.98
2018-09-03T04:24:33.028Z,13.05
2018-09-03T04:25:36.543Z,13.20
2018-09-03T04:26:40.132Z,12.88
2018-09-03T04:27:43.757Z,11.63
2018-09-03T04:28:46.843Z,12.05
2018-09-03T04:29:49.877Z,13.15
2018-09-03T04:30:52.932Z,12.47
2018-09-03T04:31:56.686Z,12.30
2018-09-03T04:32:59.705Z,12.23
2018-09-03T04:34:03.122Z,12.30
2018-09-03T04:35:06.232Z,13.00
2018-09-03T04:36:09.497Z,12.23
2018-09-03T04:37:12.566Z,12.58
2018-09-03T04:38:15.803Z,13.00
2018-09-03T04:39:19.212Z,12.35
2018-09-03T04:40:22.250Z,13.20
2018-09-03T04:41:25.295Z,13.05
2018-09-03T04:42:28.356Z,12.75
2018-09-03T04:43:31.445Z,12.00
2018-09-03T04:44:34.506Z,12.33
2018-09-03T04:45:38.772Z,13.43
2018-09-03T04:46:41.918Z,12.23
2018-09-03T04:47:45.618Z,13.03
2018-09-03T04:48:48.652Z,12.85
2018-09-03T04:49:51.671Z,12.30
2018-09-03T04:50:54.880Z,13.05
2018-09-03T04:51:58.446Z,11.65
2018-09-03T04:53:01.644Z,12.65
2018-09-03T04:54:04.778Z,12.90
2018-09-03T04:55:09.245Z,12.82
2018-09-03T04:56:12.255Z,12.47
2018-09-03T04:57:15.472Z,12.78
2018-09-03T04:58:19.896Z,13.88
2018-09-03T04:59:22.920Z,13.58
2018-09-03T05:00:25.947Z,12.73
2018-09-03T05:01:30.110Z,12.90
2018-09-03T05:02:33.489Z,13.65
2018-09-03T05:03:36.768Z,12.50
2018-09-03T05:04:39.787Z,13.48
2018-09-03T05:05:43.071Z,13.32
2018-09-03T05:06:46.292Z,11.73
2018-09-03T05:07:49.599Z,13.43
2018-09-03T05:08:53.529Z,12.18
2018-09-03T05:09:57.086Z,13.78
2018-09-03T05:11:01.757Z,13.95
2018-09-03T05:12:05.290Z,13.13
2018-09-03T05:13:09.567Z,14.50
2018-09-03T05:14:12.822Z,12.30
2018-09-03T05:15:18.540Z,12.73
2018-09-03T05:16:22.253Z,14.07
2018-09-03T05:17:25.303Z,13.40
2018-09-03T05:18:28.972Z,12.75
2018-09-03T05:19:33.816Z,13.93
2018-09-03T05:20:37.045Z,13.60
2018-09-03T05:21:41.150Z,13.32
2018-09-03T05:22:45.133Z,13.53
2018-09-03T05:23:48.228Z,13.28
2018-09-03T05:24:51.294Z,12.63
2018-09-03T05:25:54.308Z,13.00
2018-09-03T05:26:58.038Z,14.03
2018-09-03T05:28:01.332Z,13.25
2018-09-03T05:29:05.109Z,13.50
2018-09-03T05:30:08.516Z,14.10
2018-09-03T05:31:11.704Z,13.45
2018-09-03T05:32:14.742Z,13.32
2018-09-03T05:33:19.445Z,12.82
2018-09-03T05:34:23.840Z,13.62
2018-09-03T05:35:27.179Z,13.80
2018-09-03T05:36:30.925Z,14.00
2018-09-03T05:37:35.554Z,12.95
2018-09-03T05:38:39.638Z,13.45
2018-09-03T05:39:43.114Z,13.00
2018-09-03T05:40:48.354Z,13.75
2018-09-03T05:41:51.662Z,13.43
2018-09-03T05:42:55.094Z,14.40
2018-09-03T05:43:59.476Z,13.95
2018-09-03T05:45:02.555Z,13.40
2018-09-03T05:46:08.311Z,14.73
2018-09-03T05:47:11.375Z,13.55
2018-09-03T05:48:15.668Z,12.68
2018-09-03T05:49:18.999Z,14.18
2018-09-03T05:50:22.113Z,13.85
2018-09-03T05:51:25.083Z,13.90
2018-09-03T05:52:28.096Z,14.15
2018-09-03T05:53:31.573Z,13.60
2018-09-03T05:54:34.792Z,13.38
2018-09-03T05:55:37.849Z,13.15
2018-09-03T05:56:40.836Z,14.38
2018-09-03T05:57:43.823Z,13.25
2018-09-03T05:58:46.896Z,13.10
2018-09-03T05:59:50.780Z,12.73
2018-09-03T06:00:53.788Z,13.13
2018-09-03T06:01:57.509Z,13.32
2018-09-03T06:03:00.546Z,14.55
2018-09-03T06:04:04.345Z,13.75
2018-09-03T06:05:07.392Z,13.68
2018-09-03T06:06:10.925Z,13.60
2018-09-03T06:07:14.309Z,13.75
2018-09-03T06:08:18.084Z,14.53
2018-09-03T06:09:22.119Z,13.20
2018-09-03T06:10:25.408Z,13.58
2018-09-03T06:11:28.425Z,14.13
2018-09-03T06:12:31.413Z,14.05
2018-09-03T06:13:34.530Z,14.15
2018-09-03T06:14:37.612Z,14.47
2018-09-03T06:15:44.380Z,12.65
2018-09-03T06:16:47.460Z,12.65
2018-09-03T06:17:50.530Z,12.90
2018-09-03T06:18:53.501Z,14.07
2018-09-03T06:19:57.199Z,13.80
2018-09-03T06:21:00.698Z,13.20
2018-09-03T06:22:04.480Z,14.50
2018-09-03T06:23:07.654Z,13.38
2018-09-03T06:24:10.772Z,16.40
2018-09-03T06:25:13.759Z,13.95
2018-09-03T06:26:17.179Z,15.95
2018-09-03T06:27:20.392Z,15.65
2018-09-03T06:28:23.356Z,15.40
2018-09-03T06:29:27.275Z,15.65
2018-09-03T06:30:34.286Z,15.13
2018-09-03T06:31:37.264Z,15.93
2018-09-03T06:32:40.548Z,16.30
2018-09-03T06:33:43.600Z,16.25
2018-09-03T06:34:46.680Z,17.32
2018-09-03T06:35:49.773Z,19.45
2018-09-03T06:36:52.809Z,17.67
2018-09-03T06:37:56.585Z,16.07
2018-09-03T06:39:00.963Z,16.07
2018-09-03T06:40:04.598Z,15.43
2018-09-03T06:41:07.663Z,15.50
2018-09-03T06:42:10.733Z,16.40
2018-09-03T06:43:13.968Z,17.12
2018-09-03T06:44:17.028Z,17.95
2018-09-03T06:45:20.536Z,17.10
2018-09-03T06:46:23.603Z,15.03
2018-09-03T06:47:26.997Z,15.65
2018-09-03T06:48:30.503Z,15.45
2018-09-03T06:49:33.547Z,15.63
2018-09-03T06:50:36.566Z,14.75
2018-09-03T06:51:40.091Z,15.68
2018-09-03T06:52:43.155Z,15.90
2018-09-03T06:53:46.600Z,16.32
2018-09-03T06:54:50.387Z,15.05
2018-09-03T06:55:53.708Z,16.15
2018-09-03T06:56:56.940Z,14.53
2018-09-03T06:58:00.864Z,15.58
2018-09-03T06:59:04.101Z,14.33
2018-09-03T07:00:07.297Z,15.35
2018-09-03T07:01:11.028Z,14.47
2018-09-03T07:02:14.088Z,15.88
2018-09-03T07:03:17.060Z,17.07
2018-09-03T07:04:20.196Z,14.75
2018-09-03T07:05:23.237Z,16.27
2018-09-03T07:06:26.297Z,14.55
2018-09-03T07:07:29.320Z,15.05
2018-09-03T07:08:32.860Z,16.17
2018-09-03T07:09:35.940Z,15.15
2018-09-03T07:10:38.944Z,15.45
2018-09-03T07:11:42.202Z,15.30
2018-09-03T07:12:45.196Z,15.95
2018-09-03T07:13:48.427Z,15.58
2018-09-03T07:14:52.580Z,15.72
2018-09-03T07:15:55.627Z,15.95
2018-09-03T07:16:58.653Z,15.30
2018-09-03T07:18:01.744Z,16.48
2018-09-03T07:19:05.284Z,15.13
2018-09-03T07:20:08.311Z,15.50
2018-09-03T07:21:11.635Z,16.10
2018-09-03T07:22:14.664Z,16.90
2018-09-03T07:23:17.704Z,15.83
2018-09-03T07:24:20.730Z,15.68
2018-09-03T07:25:23.800Z,15.78
2018-09-03T07:26:27.044Z,15.60
2018-09-03T07:27:30.421Z,16.27
2018-09-03T07:28:33.474Z,15.30
2018-09-03T07:29:36.555Z,15.80
2018-09-03T07:30:40.596Z,15.53
2018-09-03T07:31:44.358Z,15.18
2018-09-03T07:32:48.066Z,15.48
2018-09-03T07:33:51.094Z,15.08
2018-09-03T07:34:54.316Z,16.00
2018-09-03T07:35:57.713Z,16.42
2018-09-03T07:37:00.708Z,16.67
2018-09-03T07:38:03.772Z,15.88
2018-09-03T07:39:08.000Z,15.48
2018-09-03T07:40:11.017Z,16.67
2018-09-03T07:41:14.008Z,15.15
2018-09-03T07:42:17.022Z,16.27
2018-09-03T07:43:21.591Z,16.23
2018-09-03T07:44:24.656Z,16.25
2018-09-03T07:45:28.163Z,15.63
2018-09-03T07:46:31.185Z,15.35
2018-09-03T07:47:34.328Z,16.15
2018-09-03T07:48:38.002Z,15.68
2018-09-03T07:49:41.071Z,15.08
2018-09-03T07:50:44.094Z,15.13
2018-09-03T07:51:47.078Z,15.40
2018-09-03T07:52:50.043Z,15.55
2018-09-03T07:53:53.003Z,16.00
2018-09-03T07:54:55.999Z,15.55
2018-09-03T07:55:58.969Z,14.38
2018-09-03T07:57:02.201Z,15.93
2018-09-03T07:58:05.628Z,13.40
2018-09-03T07:59:09.652Z,15.65
2018-09-03T08:00:13.541Z,14.40
2018-09-03T08:01:16.527Z,15.63
2018-09-03T08:02:19.504Z,14.95
2018-09-03T08:03:22.496Z,16.25
2018-09-03T08:04:26.495Z,16.15
2018-09-03T08:05:29.467Z,14.33
2018-09-03T08:06:32.459Z,15.23
2018-09-03T08:07:35.432Z,14.28
2018-09-03T08:08:38.404Z,14.00
2018-09-03T08:09:41.385Z,18.10
2018-09-03T08:10:44.360Z,14.68
2018-09-03T08:11:47.341Z,16.05
2018-09-03T08:12:50.351Z,14.63
2018-09-03T08:13:53.304Z,16.48
2018-09-03T08:14:56.389Z,15.53
2018-09-03T08:15:59.373Z,15.23
2018-09-03T08:17:02.724Z,17.37
2018-09-03T08:18:05.732Z,22.98
2018-09-03T08:19:08.960Z,24.35
2018-09-03T08:20:11.982Z,24.52
2018-09-03T08:21:14.936Z,24.87
2018-09-03T08:22:17.907Z,26.62
2018-09-03T08:23:20.911Z,24.85
2018-09-03T08:24:23.890Z,24.65
2018-09-03T08:25:26.868Z,23.00
2018-09-03T08:26:29.877Z,25.80
2018-09-03T08:27:32.861Z,25.15
2018-09-03T08:28:35.842Z,23.92
2018-09-03T08:29:39.021Z,21.00
2018-09-03T08:30:42.036Z,23.65
2018-09-03T08:31:45.035Z,25.30
2018-09-03T08:32:49.240Z,25.77
2018-09-03T08:33:52.627Z,24.85
2018-09-03T08:34:55.590Z,24.85
2018-09-03T08:35:58.947Z,24.72
2018-09-03T08:37:01.959Z,25.57
2018-09-03T08:38:05.208Z,25.57
2018-09-03T08:39:08.173Z,24.50
2018-09-03T08:40:11.153Z,24.50
2018-09-03T08:41:14.120Z,20.75
2018-09-03T08:42:17.110Z,18.12
2018-09-03T08:43:20.076Z,17.90
2018-09-03T08:44:23.039Z,17.70
2018-09-03T08:45:26.017Z,17.23
2018-09-03T08:46:29.059Z,16.90
2018-09-03T08:47:32.037Z,17.92
2018-09-03T08:48:35.008Z,18.05
2018-09-03T08:49:38.014Z,18.12
2018-09-03T08:50:40.984Z,17.50
2018-09-03T08:51:43.955Z,17.80
2018-09-03T08:52:46.936Z,17.60
2018-09-03T08:53:49.921Z,16.75
2018-09-03T08:54:52.916Z,18.15
2018-09-03T08:55:55.867Z,16.80
2018-09-03T08:56:58.832Z,16.17
2018-09-03T08:58:01.813Z,16.35
2018-09-03T08:59:04.781Z,16.42
2018-09-03T09:00:07.889Z,15.98
2018-09-03T09:01:10.854Z,17.50
2018-09-03T09:02:13.831Z,16.15
2018-09-03T09:03:22.279Z,17.30
2018-09-03T09:04:25.269Z,16.05
2018-09-03T09:05:28.290Z,17.45
2018-09-03T09:06:31.247Z,16.40
2018-09-03T09:07:34.212Z,15.75
2018-09-03T09:08:37.215Z,16.35
2018-09-03T09:09:40.726Z,16.48
2018-09-03T09:10:43.718Z,15.72
2018-09-03T09:11:46.750Z,16.00
2018-09-03T09:12:49.673Z,16.00
2018-09-03T09:13:52.636Z,16.90
2018-09-03T09:14:55.613Z,15.72
2018-09-03T09:15:58.593Z,16.07
2018-09-03T09:17:01.563Z,16.12
2018-09-03T09:18:04.547Z,15.98
2018-09-03T09:19:07.544Z,15.95
2018-09-03T09:20:10.544Z,16.05
2018-09-03T09:21:13.516Z,15.88
2018-09-03T09:22:16.495Z,15.48
2018-09-03T09:23:19.456Z,15.35
2018-09-03T09:24:22.487Z,15.85
2018-09-03T09:25:25.409Z,14.90
2018-09-03T09:26:28.377Z,15.93
2018-09-03T09:27:31.348Z,16.32
2018-09-03T09:28:34.308Z,14.13
2018-09-03T09:29:37.287Z,15.53
2018-09-03T09:30:40.310Z,14.83
2018-09-03T09:31:43.608Z,15.53
2018-09-03T09:32:46.580Z,14.65
2018-09-03T09:33:49.549Z,15.03
2018-09-03T09:34:52.540Z,14.50
2018-09-03T09:35:55.534Z,14.38
2018-09-03T09:36:58.540Z,14.40
2018-09-03T09:38:01.491Z,15.08
2018-09-03T09:39:07.065Z,14.70
2018-09-03T09:40:10.057Z,15.23
2018-09-03T09:41:13.037Z,15.10
2018-09-03T09:42:16.024Z,14.95
2018-09-03T09:43:19.025Z,14.93
2018-09-03T09:44:21.996Z,14.93
2018-09-03T09:45:24.972Z,14.40
2018-09-03T09:46:27.941Z,13.98
2018-09-03T09:47:30.908Z,14.23
2018-09-03T09:48:33.876Z,14.18
2018-09-03T09:49:36.860Z,14.00
2018-09-03T09:50:39.848Z,13.58
2018-09-03T09:51:42.826Z,14.55
2018-09-03T09:52:45.802Z,13.85
2018-09-03T09:53:48.777Z,13.88
2018-09-03T09:54:51.778Z,13.78
2018-09-03T09:55:54.741Z,13.68
2018-09-03T09:56:57.733Z,13.40
2018-09-03T09:58:00.784Z,13.75
2018-09-03T09:59:03.772Z,13.75
2018-09-03T10:00:09.156Z,14.25
2018-09-03T10:01:17.628Z,14.38
2018-09-03T10:02:20.617Z,13.53
2018-09-03T10:03:23.592Z,14.10
2018-09-03T10:04:26.588Z,13.53
2018-09-03T10:05:29.559Z,14.13
2018-09-03T10:06:32.572Z,12.73
2018-09-03T10:07:35.522Z,12.95
2018-09-03T10:08:38.480Z,13.45
2018-09-03T10:09:41.457Z,13.40
2018-09-03T10:10:44.422Z,13.45
2018-09-03T10:11:47.388Z,12.65
2018-09-03T10:12:50.357Z,13.40
2018-09-03T10:13:53.320Z,13.58
2018-09-03T10:14:56.285Z,13.15
2018-09-03T10:15:59.273Z,13.60
2018-09-03T10:17:02.297Z,13.35
2018-09-03T10:18:05.796Z,13.58
2018-09-03T10:19:08.776Z,13.38
2018-09-03T10:20:11.759Z,13.58
2018-09-03T10:21:14.803Z,12.93
2018-09-03T10:22:17.917Z,12.55
2018-09-03T10:23:20.895Z,12.47
2018-09-03T10:24:23.913Z,12.98
2018-09-03T10:25:26.876Z,13.28
2018-09-03T10:26:29.876Z,13.72
2018-09-03T10:27:32.888Z,13.40
2018-09-03T10:28:35.824Z,12.85
2018-09-03T10:29:38.793Z,13.05
2018-09-03T10:30:41.786Z,13.15
2018-09-03T10:31:44.756Z,13.28
2018-09-03T10:32:47.740Z,12.85
2018-09-03T10:33:50.741Z,12.60
2018-09-03T10:34:53.707Z,12.50
2018-09-03T10:35:56.696Z,12.82
2018-09-03T10:36:59.689Z,12.88
2018-09-03T10:38:02.710Z,13.50
2018-09-03T10:39:07.135Z,13.15
2018-09-03T10:40:10.100Z,13.45
2018-09-03T10:41:13.083Z,13.18
2018-09-03T10:42:20.312Z,12.47
2018-09-03T10:43:23.284Z,13.58
2018-09-03T10:44:26.249Z,13.25
2018-09-03T10:45:29.225Z,13.68
2018-09-03T10:46:32.255Z,14.50
2018-09-03T10:47:35.301Z,13.72
2018-09-03T10:48:38.218Z,12.68
2018-09-03T10:49:41.208Z,13.85
2018-09-03T10:50:44.355Z,12.88
2018-09-03T10:51:47.488Z,15.28
2018-09-03T10:52:50.471Z,12.73
2018-09-03T10:53:53.432Z,13.98
2018-09-03T10:54:56.425Z,12.90
2018-09-03T10:55:59.459Z,14.00
2018-09-03T10:57:02.410Z,12.82
2018-09-03T10:58:05.397Z,13.35
2018-09-03T10:59:08.369Z,12.53
2018-09-03T11:00:11.338Z,13.25
2018-09-03T11:01:14.376Z,12.73
2018-09-03T11:02:17.339Z,15.50
2018-09-03T11:03:20.322Z,12.55
2018-09-03T11:04:23.310Z,14.13
2018-09-03T11:05:26.280Z,12.82
2018-09-03T11:06:29.269Z,15.98
2018-09-03T11:07:32.256Z,12.65
2018-09-03T11:08:35.295Z,13.18
2018-09-03T11:09:38.313Z,13.78
2018-09-03T11:10:41.297Z,12.23
2018-09-03T11:11:44.263Z,12.68
2018-09-03T11:12:47.239Z,13.93
2018-09-03T11:13:50.460Z,13.25
2018-09-03T11:14:53.488Z,12.80
2018-09-03T11:15:56.495Z,12.88
2018-09-03T11:16:59.481Z,12.03
2018-09-03T11:18:02.470Z,13.15
2018-09-03T11:19:05.644Z,13.40
2018-09-03T11:20:11.638Z,13.10
2018-09-03T11:21:14.702Z,13.10
2018-09-03T11:22:17.624Z,12.53
2018-09-03T11:23:20.572Z,12.63
2018-09-03T11:24:23.545Z,12.68
2018-09-03T11:25:28.403Z,12.85
2018-09-03T11:26:31.415Z,13.08
2018-09-03T11:27:34.371Z,12.98
2018-09-03T11:28:37.377Z,13.08
2018-09-03T11:29:40.303Z,12.40
2018-09-03T11:30:43.298Z,12.60
2018-09-03T11:31:46.273Z,13.28
2018-09-03T11:32:54.735Z,13.40
2018-09-03T11:33:57.688Z,13.22
2018-09-03T11:35:00.715Z,12.50
2018-09-03T11:36:03.636Z,14.95
2018-09-03T11:37:06.795Z,13.48
2018-09-03T11:38:09.768Z,12.78
2018-09-03T11:39:12.905Z,13.03
2018-09-03T11:40:15.943Z,13.30
2018-09-03T11:41:19.321Z,12.25
2018-09-03T11:42:22.304Z,13.03
2018-09-03T11:43:25.268Z,12.65
2018-09-03T11:44:28.261Z,12.33
2018-09-03T11:45:31.223Z,13.10
2018-09-03T11:46:34.565Z,12.58
2018-09-03T11:47:37.548Z,12.18
2018-09-03T11:48:40.518Z,12.82
2018-09-03T11:49:43.532Z,12.60
2018-09-03T11:50:46.511Z,13.20
2018-09-03T11:51:49.492Z,12.88
2018-09-03T11:52:52.469Z,12.68
2018-09-03T11:53:55.488Z,12.75
2018-09-03T11:54:58.455Z,12.68
2018-09-03T11:56:01.429Z,14.28
2018-09-03T11:57:04.412Z,12.98
2018-09-03T11:58:07.380Z,13.53
2018-09-03T11:59:10.376Z,12.58
2018-09-03T12:00:20.925Z,12.50
2018-09-03T12:01:23.915Z,11.90
2018-09-03T12:02:26.894Z,12.65
2018-09-03T12:03:29.859Z,12.82
2018-09-03T12:04:32.884Z,12.15
2018-09-03T12:05:35.837Z,11.85
2018-09-03T12:06:38.887Z,11.20
2018-09-03T12:07:41.825Z,12.07
2018-09-03T12:08:44.795Z,12.20
2018-09-03T12:09:47.763Z,13.03
2018-09-03T12:10:50.853Z,12.85
2018-09-03T12:11:53.824Z,12.00
2018-09-03T12:12:56.796Z,12.55
2018-09-03T12:14:01.005Z,13.43
2018-09-03T12:15:08.193Z,11.95
2018-09-03T12:16:14.205Z,12.35
2018-09-03T12:17:17.176Z,11.80
2018-09-03T12:18:20.148Z,13.45
2018-09-03T12:19:23.136Z,12.20
2018-09-03T12:20:26.113Z,12.20
2018-09-03T12:21:29.084Z,12.53
2018-09-03T12:22:32.068Z,11.65
2018-09-03T12:23:35.024Z,12.28
2018-09-03T12:24:38.005Z,12.88
2018-09-03T12:25:40.973Z,12.45
2018-09-03T12:26:43.986Z,12.50
2018-09-03T12:27:47.003Z,11.85
2018-09-03T12:28:49.995Z,11.97
2018-09-03T12:29:52.977Z,11.45
2018-09-03T12:30:55.940Z,11.18
2018-09-03T12:31:58.917Z,11.65
2018-09-03T12:33:01.876Z,11.93
2018-09-03T12:34:04.844Z,11.68
2018-09-03T12:35:07.863Z,12.47
2018-09-03T12:36:10.840Z,14.07
2018-09-03T12:37:13.820Z,11.43
2018-09-03T12:38:16.808Z,12.18
2018-09-03T12:39:19.772Z,11.50
2018-09-03T12:40:22.760Z,12.37
2018-09-03T12:41:25.739Z,11.45
2018-09-03T12:42:28.716Z,11.88
2018-09-03T12:43:31.683Z,11.95
2018-09-03T12:44:34.657Z,11.35
2018-09-03T12:45:43.127Z,12.45
2018-09-03T12:46:46.120Z,11.35
2018-09-03T12:47:49.105Z,12.58
2018-09-03T12:48:52.082Z,12.68
2018-09-03T12:49:55.068Z,12.40
2018-09-03T12:50:58.339Z,11.53
2018-09-03T12:52:01.296Z,11.53
2018-09-03T12:53:04.267Z,12.18
2018-09-03T12:54:07.246Z,11.28
2018-09-03T12:55:10.212Z,11.95
2018-09-03T12:56:13.179Z,11.33
2018-09-03T12:57:16.327Z,11.20
2018-09-03T12:58:19.297Z,11.45
2018-09-03T12:59:22.273Z,11.73
2018-09-03T13:00:25.251Z,12.33
2018-09-03T13:01:28.229Z,16.02
2018-09-03T13:02:39.412Z,12.15
2018-09-03T13:03:34.191Z,13.55
2018-09-03T13:04:37.585Z,13.48
2018-09-03T13:05:40.572Z,13.13
2018-09-03T13:06:43.561Z,11.95
2018-09-03T13:07:46.557Z,11.73
2018-09-03T13:08:49.530Z,11.83
2018-09-03T13:09:52.499Z,13.48
2018-09-03T13:10:55.473Z,11.83
2018-09-03T13:11:58.444Z,12.30
2018-09-03T13:13:01.493Z,11.65
2018-09-03T13:14:04.400Z,11.40
2018-09-03T13:15:07.472Z,11.88
2018-09-03T13:16:10.436Z,13.20
2018-09-03T13:17:13.416Z,11.65
2018-09-03T13:18:16.401Z,11.90
2018-09-03T13:19:19.372Z,11.65
2018-09-03T13:20:22.373Z,13.80
2018-09-03T13:21:25.356Z,12.63
2018-09-03T13:22:28.351Z,12.18
2018-09-03T13:23:31.333Z,12.70
2018-09-03T13:24:34.308Z,10.85
2018-09-03T13:25:37.291Z,11.95
2018-09-03T13:26:40.261Z,13.68
2018-09-03T13:27:43.233Z,11.90
2018-09-03T13:28:46.240Z,11.83
2018-09-03T13:29:49.203Z,11.55
2018-09-03T13:30:52.194Z,11.35
2018-09-03T13:31:55.144Z,11.65
2018-09-03T13:32:58.125Z,11.97
2018-09-03T13:34:01.140Z,12.07
2018-09-03T13:35:04.104Z,12.13
2018-09-03T13:36:07.089Z,11.80
2018-09-03T13:37:10.067Z,12.05
2018-09-03T13:38:13.039Z,11.83
2018-09-03T13:39:16.008Z,12.25
2018-09-03T13:40:19.025Z,12.18